Time;durP1;ratioP1;P1;durP2;ratioP2;P2;SDS_P1;SDS_P2;PMS_P1;PMS_P2;Temp;Humidity;BMP_temperature;BMP_pressure;BME280_temperature;BME280_humidity;BME280_pressure;Samples;Min_cycle;Max_cycle;Signal;HPM_P1;HPM_P2
2023/09/26 00:01:03;;;;;;;9.93;5.35;;;;;;;19.49;67.17;100326.75;5051400;28;20140;-83
2023/09/26 00:03:28;;;;;;;15.07;5.13;;;;;;;19.27;66.14;100327.88;5052510;28;20055;-82
2023/09/26 00:06:00;;;;;;;13.48;5.13;;;;;;;19.09;66.91;100344.63;5055544;28;20573;-82
2023/09/26 00:08:25;;;;;;;12.00;5.50;;;;;;;19.23;66.48;100334.88;5072584;28;20036;-82
2023/09/26 00:10:53;;;;;;;11.82;4.68;;;;;;;19.11;66.72;100320.81;5055188;28;20136;-82
2023/09/26 00:13:19;;;;;;;18.42;6.53;;;;;;;19.37;65.58;100324.34;5055533;28;20493;-82
2023/09/26 00:15:45;;;;;;;11.43;5.15;;;;;;;19.19;66.87;100339.22;5053859;28;20082;-82
2023/09/26 00:18:10;;;;;;;11.63;5.10;;;;;;;18.72;68.66;100312.38;5054367;28;20025;-82
2023/09/26 00:20:38;;;;;;;10.82;5.53;;;;;;;19.12;66.55;100327.84;5052286;28;20059;-82
2023/09/26 00:23:04;;;;;;;;;;;;;;;19.20;67.09;100330.00;5058658;28;20025;-85
2023/09/26 00:25:30;;;;;;;14.18;6.47;;;;;;;19.34;65.81;100318.66;5057398;28;19924;-82
2023/09/26 00:27:56;;;;;;;10.05;4.97;;;;;;;19.18;66.40;100315.94;5053363;28;20033;-83
2023/09/26 00:30:23;;;;;;;11.60;5.80;;;;;;;18.73;68.47;100322.88;5053643;28;20485;-82
2023/09/26 00:32:48;;;;;;;23.33;7.43;;;;;;;18.91;67.86;100310.00;5051702;28;20041;-82
2023/09/26 00:35:14;;;;;;;11.80;5.30;;;;;;;18.98;66.80;100299.72;5064478;28;20044;-82
2023/09/26 00:37:48;;;;;;;13.90;5.93;;;;;;;18.89;67.60;100312.16;5064651;28;20120;-82
2023/09/26 00:40:15;;;;;;;12.73;4.90;;;;;;;18.68;67.57;100302.09;5064953;28;20047;-82
2023/09/26 00:42:42;;;;;;;13.60;5.40;;;;;;;18.90;67.28;100298.38;5053149;28;20040;-82
2023/09/26 00:45:08;;;;;;;11.77;5.50;;;;;;;18.83;66.99;100293.22;5054546;28;20061;-82
2023/09/26 00:47:35;;;;;;;12.32;5.40;;;;;;;19.58;78.59;100325.16;5062878;28;20099;-80
2023/09/26 00:50:03;;;;;;;9.82;4.90;;;;;;;19.97;73.04;100329.97;5066767;28;20898;-80
2023/09/26 00:52:29;;;;;;;13.27;5.65;;;;;;;19.87;77.21;100325.38;5052611;28;20033;-81
2023/09/26 00:54:54;;;;;;;14.10;5.68;;;;;;;19.74;69.17;100309.72;5052577;28;20025;-80
2023/09/26 00:57:20;;;;;;;11.55;6.18;;;;;;;19.76;73.56;100323.00;5066752;28;20070;-81
2023/09/26 00:59:46;;;;;;;12.32;6.57;;;;;;;19.57;71.07;100307.28;5071162;28;20397;-81
2023/09/26 01:02:11;;;;;;;20.20;5.85;;;;;;;19.37;74.41;100307.28;5051488;28;20465;-81
2023/09/26 01:04:37;;;;;;;12.73;6.28;;;;;;;19.36;76.12;100309.19;5064345;28;20021;-81
2023/09/26 01:07:03;;;;;;;17.15;5.65;;;;;;;19.68;79.64;100302.69;5054503;28;20109;-81
2023/09/26 01:09:29;;;;;;;15.85;5.85;;;;;;;19.49;73.50;100315.94;5072808;28;20107;-81
2023/09/26 01:11:55;;;;;;;13.65;5.72;;;;;;;19.48;72.11;100308.94;5054107;28;20508;-84
2023/09/26 01:14:21;;;;;;;13.73;7.00;;;;;;;19.66;71.98;100316.47;5055702;28;20032;-81
2023/09/26 01:16:53;;;;;;;10.30;5.97;;;;;;;19.63;69.41;100322.41;5060475;28;20028;-81
2023/09/26 01:19:18;;;;;;;12.48;5.65;;;;;;;19.53;76.15;100306.19;5032947;28;20044;-81
2023/09/26 01:21:43;;;;;;;11.30;5.78;;;;;;;19.84;78.36;100328.66;5031407;28;20026;-82
2023/09/26 01:24:11;;;;;;;10.95;5.55;;;;;;;19.56;72.77;100332.72;5059685;28;20033;-81
2023/09/26 01:26:36;;;;;;;10.65;5.68;;;;;;;19.42;73.74;100312.72;5055365;28;20029;-80
2023/09/26 01:29:03;;;;;;;10.20;5.68;;;;;;;19.41;71.08;100311.06;5069516;28;20643;-81
2023/09/26 01:31:28;;;;;;;11.73;6.63;;;;;;;19.54;74.38;100294.31;5059986;28;20024;-80
2023/09/26 01:33:54;;;;;;;16.83;6.10;;;;;;;19.98;72.30;100318.06;5052053;28;20560;-81
2023/09/26 01:36:21;;;;;;;10.30;5.70;;;;;;;19.60;74.47;100301.34;5057859;28;20040;-81
2023/09/26 01:38:46;;;;;;;16.85;6.28;;;;;;;19.42;72.42;100304.59;5058327;28;20560;-85
2023/09/26 01:41:12;;;;;;;11.88;6.05;;;;;;;19.21;72.92;100298.41;5052159;28;20025;-80
2023/09/26 01:43:38;;;;;;;13.35;5.60;;;;;;;19.58;71.68;100318.94;5051753;28;20025;-81
2023/09/26 01:46:04;;;;;;;14.40;6.75;;;;;;;19.75;68.21;100313.25;5055580;28;20064;-81
2023/09/26 01:48:29;;;;;;;13.77;6.25;;;;;;;19.46;74.32;100316.50;5050845;28;20020;-81
2023/09/26 01:50:54;;;;;;;12.80;5.72;;;;;;;19.34;75.73;100313.25;5050426;28;20033;-81
2023/09/26 01:53:20;;;;;;;13.23;6.07;;;;;;;19.78;75.77;100331.66;5051397;28;20044;-80
2023/09/26 01:55:45;;;;;;;12.10;6.45;;;;;;;19.35;73.68;100314.88;5054041;28;20037;-80
2023/09/26 01:58:11;;;;;;;11.30;6.28;;;;;;;19.56;74.46;100319.19;5051356;28;20098;-81
2023/09/26 02:00:36;;;;;;;12.80;6.40;;;;;;;19.63;75.21;100311.59;5051353;28;20036;-81
2023/09/26 02:03:02;;;;;;;12.07;5.55;;;;;;;19.57;73.47;100301.88;5051024;28;20017;-81
2023/09/26 02:05:27;;;;;;;13.65;6.18;;;;;;;19.47;71.11;100296.47;5053475;28;20040;-81
2023/09/26 02:07:53;;;;;;;12.07;5.75;;;;;;;19.41;69.19;100319.19;5051500;28;20056;-82
2023/09/26 02:10:18;;;;;;;11.65;6.30;;;;;;;19.54;68.91;100329.47;5051421;28;20093;-80
2023/09/26 02:12:48;;;;;;;12.15;6.47;;;;;;;19.30;68.25;100312.19;5051689;28;20033;-81
2023/09/26 02:15:14;;;;;;;13.77;5.55;;;;;;;19.48;74.33;100309.72;5051161;28;20113;-80
2023/09/26 02:17:41;;;;;;;13.32;5.78;;;;;;;19.24;71.94;100304.06;5057787;28;20092;-80
2023/09/26 02:20:14;;;;;;;9.32;5.65;;;;;;;19.45;73.18;100320.28;5051844;28;20115;-81
2023/09/26 02:22:41;;;;;;;9.68;4.95;;;;;;;19.27;68.84;100281.91;5049802;28;20406;-81
2023/09/26 02:25:08;;;;;;;10.70;5.38;;;;;;;19.31;69.85;100297.56;5052199;28;20036;-80
2023/09/26 02:27:33;;;;;;;12.20;5.10;;;;;;;19.27;67.50;100298.13;5059524;28;20025;-80
2023/09/26 02:29:59;;;;;;;13.90;5.20;;;;;;;19.38;69.60;100298.13;5053154;28;21240;-84
2023/09/26 02:32:24;;;;;;;13.88;5.30;;;;;;;19.48;71.31;100315.13;5051533;28;20044;-81
2023/09/26 02:34:50;;;;;;;10.23;4.75;;;;;;;19.52;68.45;100318.13;5049897;28;20033;-81
2023/09/26 02:37:15;;;;;;;12.63;4.93;;;;;;;19.50;67.41;100314.88;5067296;28;20039;-81
2023/09/26 02:39:40;;;;;;;13.02;5.65;;;;;;;19.44;68.30;100292.41;5065360;28;20063;-80
2023/09/26 02:42:06;;;;;;;14.38;5.72;;;;;;;19.60;67.46;100306.75;5071904;28;20056;-80
2023/09/26 02:44:31;;;;;;;14.82;6.00;;;;;;;19.39;68.60;100311.38;5060951;28;20033;-81
2023/09/26 02:46:57;;;;;;;16.42;5.82;;;;;;;19.37;68.86;100308.13;5060936;28;20040;-81
2023/09/26 02:49:22;;;;;;;14.65;6.03;;;;;;;19.42;70.93;100321.63;5060174;28;20033;-81
2023/09/26 02:51:48;;;;;;;16.20;6.13;;;;;;;19.55;73.61;100308.63;5056615;28;20028;-80
2023/09/26 02:54:13;;;;;;;16.20;6.13;;;;;;;19.61;70.40;100304.84;5068621;28;20111;-80
2023/09/26 02:56:38;;;;;;;11.52;5.75;;;;;;;19.74;67.32;100317.03;5076931;28;20056;-84
2023/09/26 02:59:04;;;;;;;13.27;5.50;;;;;;;19.76;73.01;100314.88;5071691;28;20036;-81
2023/09/26 03:01:30;;;;;;;11.95;6.50;;;;;;;19.58;73.00;100308.91;5084496;28;20025;-81
2023/09/26 03:03:58;;;;;;;12.05;4.57;;;;;;;19.62;69.18;100309.19;5062448;28;20029;-82
2023/09/26 03:06:23;;;;;;;16.77;6.18;;;;;;;19.66;69.52;100304.84;5067097;28;20067;-80
2023/09/26 03:08:49;;;;;;;11.02;5.07;;;;;;;19.66;70.13;100308.34;5063371;28;20036;-85
2023/09/26 03:11:14;;;;;;;10.73;4.88;;;;;;;19.67;67.31;100290.22;5063617;28;20572;-81
2023/09/26 03:13:39;;;;;;;15.60;5.20;;;;;;;19.76;67.89;100304.06;5060642;28;20087;-80
2023/09/26 03:16:08;;;;;;;12.90;5.32;;;;;;;19.60;67.31;100284.31;5071860;28;20050;-80
2023/09/26 03:18:34;;;;;;;15.02;5.28;;;;;;;19.78;67.38;100304.59;5063868;28;20033;-82
2023/09/26 03:21:04;;;;;;;17.00;6.03;;;;;;;19.96;69.34;100298.59;5056568;28;20032;-81
2023/09/26 03:23:30;;;;;;;12.40;4.63;;;;;;;20.01;68.43;100311.28;5060871;28;20093;-81
2023/09/26 03:25:55;;;;;;;18.08;4.90;;;;;;;20.04;64.61;100316.97;5055939;28;20035;-81
2023/09/26 03:28:21;;;;;;;12.95;5.05;;;;;;;19.95;67.74;100288.81;5062738;28;20028;-81
2023/09/26 03:30:46;;;;;;;9.90;4.70;;;;;;;19.99;67.62;100295.31;5056477;28;20029;-81
2023/09/26 03:33:12;;;;;;;16.02;5.05;;;;;;;20.09;65.66;100299.09;5052061;28;20021;-80
2023/09/26 03:35:37;;;;;;;15.10;5.20;;;;;;;20.11;66.21;100299.63;5053971;28;20033;-81
2023/09/26 03:38:03;;;;;;;13.98;4.72;;;;;;;19.74;66.39;100263.72;5063366;28;20059;-84
2023/09/26 03:40:28;;;;;;;24.63;6.60;;;;;;;19.64;66.90;100278.06;5064369;28;20531;-81
2023/09/26 03:42:54;;;;;;;12.30;5.00;;;;;;;19.93;67.30;100309.94;5071297;28;20090;-82
2023/09/26 03:45:21;;;;;;;18.02;5.57;;;;;;;19.78;67.66;100302.69;5062431;28;20445;-81
2023/09/26 03:47:46;;;;;;;13.35;4.97;;;;;;;19.89;66.44;100306.16;5050359;28;20088;-81
2023/09/26 03:50:11;;;;;;;9.50;4.75;;;;;;;19.91;69.47;100304.00;5059664;28;20078;-82
2023/09/26 03:52:37;;;;;;;12.75;5.20;;;;;;;20.21;68.64;100307.69;5066422;28;20032;-81
2023/09/26 03:55:03;;;;;;;15.38;5.53;;;;;;;20.04;65.46;100322.38;5049200;28;20133;-81
2023/09/26 03:57:32;;;;;;;15.38;5.47;;;;;;;19.92;64.76;100297.50;5050143;28;20033;-83
2023/09/26 03:59:57;;;;;;;11.80;5.40;;;;;;;19.90;69.02;100307.81;5057615;28;20379;-84
2023/09/26 04:02:23;;;;;;;13.48;5.13;;;;;;;19.60;66.13;100311.34;5051278;28;20059;-83
2023/09/26 04:04:48;;;;;;;12.77;5.47;;;;;;;19.48;67.87;100308.94;5068274;28;20039;-84
2023/09/26 04:07:14;;;;;;;16.08;5.55;;;;;;;19.54;68.71;100328.66;5054814;28;20059;-86
2023/09/26 04:09:42;;;;;;;15.80;5.90;;;;;;;19.36;68.18;100311.09;5058814;28;20475;-83
2023/09/26 04:12:07;;;;;;;;;;;;;;;19.43;68.74;100325.97;5049857;28;20473;-86
2023/09/26 04:14:33;;;;;;;15.38;5.80;;;;;;;19.28;69.92;100331.38;5066492;28;19916;-84
2023/09/26 04:16:58;;;;;;;16.70;6.22;;;;;;;19.25;69.16;100304.88;5066223;28;20025;-83
2023/09/26 04:19:24;;;;;;;16.00;5.32;;;;;;;19.13;69.01;100307.84;5049327;28;20023;-83
2023/09/26 04:21:52;;;;;;;10.38;5.78;;;;;;;19.24;71.66;100331.09;5049059;28;20029;-84
2023/09/26 04:24:21;;;;;;;15.15;6.10;;;;;;;19.13;69.63;100320.56;5063113;28;20036;-85
2023/09/26 04:26:49;;;;;;;17.15;6.18;;;;;;;19.09;70.75;100306.78;5056362;28;20029;-83
2023/09/26 04:29:14;;;;;;;17.08;6.15;;;;;;;19.21;69.59;100336.25;5062284;28;20102;-83
2023/09/26 04:31:40;;;;;;;19.33;6.22;;;;;;;19.11;69.81;100320.81;5050480;28;20121;-84
2023/09/26 04:34:08;;;;;;;20.17;6.30;;;;;;;19.10;71.18;100332.72;5050482;28;20031;-84
2023/09/26 04:36:33;;;;;;;19.50;6.60;;;;;;;19.11;70.05;100317.31;5059736;28;20033;-83
2023/09/26 04:38:58;;;;;;;13.55;5.65;;;;;;;18.87;71.42;100324.03;5071087;28;20082;-83
2023/09/26 04:41:24;;;;;;;18.70;7.15;;;;;;;18.96;72.03;100326.19;5065893;28;20040;-83
2023/09/26 04:43:49;;;;;;;11.07;6.30;;;;;;;19.14;70.77;100328.38;5072612;28;20093;-83
2023/09/26 04:46:16;;;;;;;16.80;6.55;;;;;;;19.08;72.05;100326.75;5069831;28;20067;-83
2023/09/26 04:48:43;;;;;;;13.45;6.32;;;;;;;19.09;74.49;100341.91;5063879;28;20029;-82
2023/09/26 04:51:11;;;;;;;20.05;7.38;;;;;;;19.09;73.92;100347.31;5052132;28;20033;-83
2023/09/26 04:53:36;;;;;;;17.33;6.95;;;;;;;19.02;73.37;100325.13;5053838;28;20036;-83
2023/09/26 04:56:02;;;;;;;18.75;7.78;;;;;;;19.22;73.18;100341.38;5052090;28;20041;-84
2023/09/26 04:58:30;;;;;;;13.52;7.60;;;;;;;19.52;72.81;100342.47;5062869;28;20035;-84
2023/09/26 05:00:56;;;;;;;16.65;8.75;;;;;;;19.65;72.30;100347.31;5067035;28;20060;-85
2023/09/26 05:03:21;;;;;;;16.58;7.40;;;;;;;19.73;71.80;100358.69;5053510;28;20120;-83
2023/09/26 05:05:46;;;;;;;18.40;8.27;;;;;;;19.59;72.38;100356.50;5073204;28;20089;-85
2023/09/26 05:08:12;;;;;;;20.42;7.82;;;;;;;19.52;72.62;100363.28;5056098;28;20496;-83
2023/09/26 05:10:38;;;;;;;13.35;7.75;;;;;;;19.52;72.51;100364.09;5051552;28;20037;-84
2023/09/26 05:13:08;;;;;;;17.08;8.13;;;;;;;19.76;71.56;100374.41;5052230;28;20023;-83
2023/09/26 05:15:35;;;;;;;18.38;8.23;;;;;;;19.80;71.50;100351.94;5071495;28;20471;-83
2023/09/26 05:18:01;;;;;;;16.50;7.53;;;;;;;20.02;71.36;100378.69;5055387;28;20032;-83
2023/09/26 05:20:26;;;;;;;17.92;7.05;;;;;;;20.11;71.65;100364.59;5052697;28;20058;-83
2023/09/26 05:22:52;;;;;;;15.75;6.93;;;;;;;20.09;71.19;100374.88;5051468;28;20184;-84
2023/09/26 05:25:18;;;;;;;25.40;7.57;;;;;;;20.37;70.54;100389.69;5066154;28;20040;-84
2023/09/26 05:27:43;;;;;;;10.07;6.10;;;;;;;20.56;67.08;100365.50;5056736;28;20635;-83
2023/09/26 05:30:11;;;;;;;13.68;7.35;;;;;;;20.62;67.28;100377.97;5066905;28;20551;-82
2023/09/26 05:32:38;;;;;;;17.02;6.43;;;;;;;20.55;66.47;100380.94;5056294;28;20099;-83
2023/09/26 05:35:06;;;;;;;14.82;6.55;;;;;;;20.42;68.51;100363.38;5051132;28;20040;-84
2023/09/26 05:37:31;;;;;;;13.32;6.43;;;;;;;20.56;68.11;100369.03;5052421;28;20033;-83
2023/09/26 05:39:57;;;;;;;15.40;6.28;;;;;;;20.74;68.16;100370.31;5063280;28;20496;-83
2023/09/26 05:42:22;;;;;;;12.88;5.72;;;;;;;20.90;65.70;100367.50;5051673;28;20421;-83
2023/09/26 05:44:47;;;;;;;12.75;6.03;;;;;;;20.82;66.32;100374.31;5052907;28;20068;-84
2023/09/26 05:47:13;;;;;;;11.27;6.00;;;;;;;20.76;66.76;100380.88;5051410;28;20138;-84
2023/09/26 05:49:38;;;;;;;15.45;6.70;;;;;;;20.85;65.73;100382.72;5050362;28;20154;-84
2023/09/26 05:52:04;;;;;;;11.43;6.70;;;;;;;20.95;66.80;100390.00;5058697;28;20710;-85
2023/09/26 05:54:31;;;;;;;10.07;5.38;;;;;;;20.85;67.13;100369.16;5051672;28;20032;-83
2023/09/26 05:56:56;;;;;;;14.63;5.72;;;;;;;21.11;65.05;100382.59;5050977;28;20036;-84
2023/09/26 05:59:22;;;;;;;10.75;5.47;;;;;;;21.24;64.10;100371.06;5060096;28;20021;-82
2023/09/26 06:01:47;;;;;;;16.60;6.72;;;;;;;21.25;63.74;100383.56;5057340;28;20044;-83
2023/09/26 06:04:12;;;;;;;18.33;6.07;;;;;;;21.24;65.23;100392.78;5051508;28;20040;-83
2023/09/26 06:06:38;;;;;;;11.90;5.78;;;;;;;21.17;64.23;100381.44;5032415;28;20170;-83
2023/09/26 06:09:03;;;;;;;15.43;5.82;;;;;;;21.19;63.73;100373.84;5066110;28;20044;-83
2023/09/26 06:11:29;;;;;;;16.42;5.80;;;;;;;21.39;63.91;100394.59;5052851;28;20056;-84
2023/09/26 06:13:54;;;;;;;18.40;6.25;;;;;;;21.37;64.02;100374.25;5070462;28;20020;-83
2023/09/26 06:16:20;;;;;;;13.57;6.00;;;;;;;21.71;62.75;100379.69;5054217;28;20028;-83
2023/09/26 06:18:47;;;;;;;12.35;5.07;;;;;;;21.89;62.45;100380.06;5051809;28;20034;-83
2023/09/26 06:21:14;;;;;;;13.57;5.53;;;;;;;22.12;61.74;100373.03;5070939;28;20500;-86
2023/09/26 06:23:40;;;;;;;12.05;5.63;;;;;;;22.53;60.03;100408.72;5052062;28;20087;-83
2023/09/26 06:26:06;;;;;;;12.93;6.10;;;;;;;22.64;58.43;100412.16;5063876;28;20032;-85
2023/09/26 06:28:32;;;;;;;19.67;6.53;;;;;;;22.64;59.29;100412.16;5059229;28;20040;-83
2023/09/26 06:31:04;;;;;;;17.35;5.90;;;;;;;22.71;58.11;100401.72;5053206;28;20090;-83
2023/09/26 06:33:30;;;;;;;22.73;6.53;;;;;;;22.67;59.40;100406.09;5054532;28;20035;-83
2023/09/26 06:35:55;;;;;;;17.77;5.78;;;;;;;22.75;60.53;100401.94;5061352;28;20036;-87
2023/09/26 06:38:21;;;;;;;15.63;5.50;;;;;;;22.96;60.55;100399.75;5060059;28;20025;-83
2023/09/26 06:40:46;;;;;;;12.68;5.80;;;;;;;23.24;58.57;100409.69;5061990;28;20070;-84
2023/09/26 06:43:12;;;;;;;13.00;5.30;;;;;;;23.20;56.92;100397.78;5049251;28;20025;-84
2023/09/26 06:45:39;;;;;;;10.85;5.80;;;;;;;23.12;59.03;100412.06;5051202;28;20111;-82
2023/09/26 06:48:07;;;;;;;18.10;6.03;;;;;;;23.25;59.70;100411.31;5053240;28;20079;-83
2023/09/26 06:50:33;;;;;;;10.77;5.13;;;;;;;23.32;57.19;100402.78;5054801;28;20303;-83
2023/09/26 06:52:58;;;;;;;15.48;5.50;;;;;;;23.24;58.38;100408.91;5050978;28;20482;-82
2023/09/26 06:55:23;;;;;;;15.90;6.22;;;;;;;23.39;57.64;100407.84;5048805;28;20036;-82
2023/09/26 06:57:49;;;;;;;14.60;5.70;;;;;;;23.26;57.18;100398.53;5051348;28;20047;-83
2023/09/26 07:00:16;;;;;;;16.90;5.30;;;;;;;23.38;56.32;100404.31;5053549;28;20028;-82
2023/09/26 07:02:46;;;;;;;18.45;5.55;;;;;;;23.16;57.60;100412.28;5057346;28;20029;-83
2023/09/26 07:05:12;;;;;;;18.13;6.03;;;;;;;22.96;57.94;100405.19;5050700;28;20037;-84
2023/09/26 07:07:38;;;;;;;17.35;5.43;;;;;;;23.01;57.93;100405.13;5049361;28;20033;-83
2023/09/26 07:10:05;;;;;;;9.80;4.82;;;;;;;23.41;56.97;100419.25;5066899;28;20037;-83
2023/09/26 07:12:33;;;;;;;18.73;5.97;;;;;;;23.38;56.78;100414.41;5049445;28;20021;-82
2023/09/26 07:14:58;;;;;;;;;;;;;;;23.34;57.79;100419.63;5051037;28;20060;-86
2023/09/26 07:17:24;;;;;;;15.88;5.10;;;;;;;23.34;56.99;100424.25;5067911;28;20420;-82
2023/09/26 07:19:50;;;;;;;12.43;5.20;;;;;;;23.64;57.00;100418.31;5067049;28;20025;-82
2023/09/26 07:22:15;;;;;;;14.02;5.43;;;;;;;24.10;55.21;100419.47;5067827;28;20032;-83
2023/09/26 07:24:41;;;;;;;18.10;5.65;;;;;;;24.11;56.06;100398.47;5046623;28;20029;-81
2023/09/26 07:27:07;;;;;;;12.93;5.45;;;;;;;24.19;54.88;100417.66;5050391;28;20390;-83
2023/09/26 07:29:32;;;;;;;12.63;5.05;;;;;;;24.00;55.17;100404.09;5049670;28;20043;-81
2023/09/26 07:31:58;;;;;;;16.73;5.50;;;;;;;24.10;54.10;100410.47;5056537;28;20028;-83
2023/09/26 07:34:23;;;;;;;11.68;4.72;;;;;;;24.24;54.35;100408.59;5055342;28;20029;-83
2023/09/26 07:36:49;;;;;;;12.85;4.80;;;;;;;24.20;54.08;100404.84;5049821;28;20112;-84
2023/09/26 07:39:17;;;;;;;17.38;5.90;;;;;;;24.33;53.58;100406.75;5057805;28;20039;-84
2023/09/26 07:41:42;;;;;;;14.13;4.50;;;;;;;24.65;53.33;100396.88;5055360;28;20025;-84
2023/09/26 07:44:10;;;;;;;17.73;5.18;;;;;;;24.72;53.31;100408.16;5049726;28;20417;-84
2023/09/26 07:46:35;;;;;;;22.17;7.25;;;;;;;24.99;53.11;100417.44;5056318;28;20078;-83
2023/09/26 07:49:01;;;;;;;14.43;5.15;;;;;;;24.50;53.21;100399.91;5065498;28;20096;-84
2023/09/26 07:51:26;;;;;;;626.47;372.52;;;;;;;24.68;53.19;100407.16;5053335;28;20127;-84
2023/09/26 07:53:52;;;;;;;1359.13;716.28;;;;;;;24.52;54.43;100400.41;5049646;28;20048;-84
2023/09/26 07:56:18;;;;;;;1417.35;761.53;;;;;;;24.68;53.58;100412.63;5050586;28;20469;-84
2023/09/26 07:58:43;;;;;;;208.45;92.45;;;;;;;24.74;53.69;100414.13;5049446;28;20596;-84
2023/09/26 08:01:09;;;;;;;58.08;27.35;;;;;;;24.60;53.92;100411.44;5048774;28;20036;-84
2023/09/26 08:03:38;;;;;;;15.55;5.70;;;;;;;24.48;53.89;100408.38;5048954;28;20040;-83
2023/09/26 08:06:05;;;;;;;20.02;5.60;;;;;;;24.51;53.72;100404.25;5049346;28;20497;-84
2023/09/26 08:08:31;;;;;;;217.38;113.88;;;;;;;24.63;53.49;100399.09;5030002;28;20486;-84
2023/09/26 08:11:05;;;;;;;59.80;26.15;;;;;;;24.63;53.67;100399.91;5054219;28;20118;-84
2023/09/26 08:13:31;;;;;;;51.25;22.73;;;;;;;24.96;53.23;100412.56;5066281;28;20028;-85
2023/09/26 08:15:57;;;;;;;26.95;10.23;;;;;;;25.05;52.15;100402.56;5051662;28;20098;-84
2023/09/26 08:18:23;;;;;;;87.18;43.72;;;;;;;24.97;53.89;100403.28;5069434;28;20036;-83
2023/09/26 08:20:49;;;;;;;76.80;40.78;;;;;;;24.77;53.46;100404.53;5071802;28;20409;-85
2023/09/26 08:23:16;;;;;;;400.65;218.85;;;;;;;24.62;53.79;100406.47;5053990;28;20024;-83
2023/09/26 08:25:41;;;;;;;55.25;26.65;;;;;;;25.03;51.96;100396.59;5053895;28;20033;-80
2023/09/26 08:28:06;;;;;;;41.35;19.00;;;;;;;25.44;51.43;100387.47;5053375;28;20581;-81
2023/09/26 08:30:33;;;;;;;60.22;29.58;;;;;;;25.52;52.37;100391.34;5067956;28;20036;-84
2023/09/26 08:32:58;;;;;;;27.95;9.25;;;;;;;25.54;50.47;100391.84;5053745;28;20506;-81
2023/09/26 08:35:24;;;;;;;25.10;6.13;;;;;;;25.59;49.57;100400.72;5052665;28;20052;-81
2023/09/26 08:37:49;;;;;;;16.60;6.00;;;;;;;25.37;49.15;100384.38;5053795;28;20507;-81
2023/09/26 08:40:15;;;;;;;26.15;9.85;;;;;;;25.93;48.89;100390.34;5053500;28;20028;-80
2023/09/26 08:42:41;;;;;;;26.88;9.00;;;;;;;25.94;47.78;100381.84;5051941;28;20404;-82
2023/09/26 08:45:08;;;;;;;17.65;5.38;;;;;;;25.91;48.21;100398.88;5052230;28;20036;-86
2023/09/26 08:47:39;;;;;;;18.55;7.07;;;;;;;26.41;48.89;100390.38;5060341;28;20056;-81
2023/09/26 08:50:05;;;;;;;13.00;4.70;;;;;;;26.38;46.13;100406.63;5064180;28;21278;-80
2023/09/26 08:52:31;;;;;;;16.17;4.90;;;;;;;25.81;46.79;100390.91;5061928;28;20096;-80
2023/09/26 08:54:56;;;;;;;14.30;4.22;;;;;;;25.63;47.13;100393.53;5055884;28;20029;-81
2023/09/26 08:57:22;;;;;;;19.42;7.57;;;;;;;26.39;46.57;100392.63;5052841;28;20040;-82
2023/09/26 08:59:48;;;;;;;13.65;3.85;;;;;;;26.68;45.49;100393.19;5055539;28;20028;-80
2023/09/26 09:02:14;;;;;;;13.57;4.57;;;;;;;26.74;45.85;100394.66;5068047;28;20041;-80
2023/09/26 09:04:43;;;;;;;21.05;4.80;;;;;;;26.39;46.83;100392.63;5058963;28;20033;-81
2023/09/26 09:07:10;;;;;;;16.92;6.10;;;;;;;26.51;45.45;100388.47;5053199;28;20043;-82
2023/09/26 09:09:36;;;;;;;18.23;5.15;;;;;;;27.00;45.36;100400.16;5051903;28;20132;-81
2023/09/26 09:12:02;;;;;;;14.13;4.78;;;;;;;27.47;43.93;100388.56;5054737;28;20549;-81
2023/09/26 09:14:34;;;;;;;15.07;4.47;;;;;;;27.11;43.91;100385.00;5061876;28;20035;-81
2023/09/26 09:16:59;;;;;;;13.73;4.93;;;;;;;26.78;44.87;100404.63;5050961;28;20378;-81
2023/09/26 09:19:45;;;;;;;10.02;3.97;;;;;;;26.31;46.20;100407.06;5071329;28;20490;-81
2023/09/26 09:22:21;;;;;;;10.73;3.90;;;;;;;26.18;46.28;100386.91;5051918;28;20051;-80
2023/09/26 09:24:56;;;;;;;13.30;4.30;;;;;;;26.52;45.64;100387.34;5055999;28;20029;-82
2023/09/26 09:27:32;;;;;;;16.55;6.35;;;;;;;26.56;46.61;100394.59;5071651;28;20093;-83
2023/09/26 09:30:14;;;;;;;36.88;17.23;;;;;;;25.84;46.74;100341.88;5053731;28;20055;-84
2023/09/26 09:32:41;;;;;;;25.60;11.82;;;;;;;26.09;47.34;100377.88;5055579;28;20040;-81
2023/09/26 09:35:13;;;;;;;23.27;8.63;;;;;;;26.55;47.21;100387.50;5057810;28;20058;-79
2023/09/26 09:37:40;;;;;;;57.13;26.80;;;;;;;26.65;46.60;100370.03;5070310;28;20029;-81
2023/09/26 09:40:06;;;;;;;;;;;;;;;26.18;45.91;100386.13;5052131;28;20108;-81
2023/09/26 09:42:32;;;;;;;9.73;4.85;;;;;;;25.97;46.30;100362.09;5051936;28;20444;-81
2023/09/26 09:44:57;;;;;;;28.02;13.43;;;;;;;26.09;46.00;100383.34;5052605;28;20033;-81
2023/09/26 09:47:24;;;;;;;14.63;4.75;;;;;;;25.99;45.80;100365.31;5051678;28;20057;-83
2023/09/26 09:49:51;;;;;;;15.48;4.90;;;;;;;25.98;45.41;100369.16;5068758;28;20029;-81
2023/09/26 09:52:21;;;;;;;13.90;5.30;;;;;;;26.08;45.88;100365.34;5052966;28;20033;-81
2023/09/26 09:54:48;;;;;;;11.32;4.95;;;;;;;26.38;45.30;100377.34;5052421;28;20055;-81
2023/09/26 09:57:15;;;;;;;16.83;5.78;;;;;;;26.36;45.08;100371.38;5071536;28;20035;-83
2023/09/26 09:59:42;;;;;;;19.42;5.45;;;;;;;26.15;44.47;100365.66;5056363;28;20033;-82
2023/09/26 10:02:15;;;;;;;13.73;4.70;;;;;;;26.29;44.71;100360.09;5052141;28;20036;-84
2023/09/26 10:04:42;;;;;;;16.25;4.63;;;;;;;26.43;45.45;100360.78;5053537;28;20517;-81
2023/09/26 10:07:10;;;;;;;13.32;5.20;;;;;;;26.30;45.35;100360.91;5051499;28;20040;-84
2023/09/26 10:09:36;;;;;;;11.80;4.30;;;;;;;26.68;44.69;100372.09;5052400;28;20074;-81
2023/09/26 10:12:02;;;;;;;13.93;4.53;;;;;;;27.32;43.00;100357.00;5050465;28;20560;-83
2023/09/26 10:14:31;;;;;;;15.88;5.50;;;;;;;27.30;43.02;100365.56;5065593;28;20029;-81
2023/09/26 10:16:57;;;;;;;13.68;4.57;;;;;;;26.91;43.76;100334.47;5054710;28;20053;-82
2023/09/26 10:19:25;;;;;;;10.32;4.03;;;;;;;26.85;43.40;100343.97;5051670;28;20120;-82
2023/09/26 10:21:52;;;;;;;14.93;4.55;;;;;;;26.81;44.03;100335.59;5051575;28;20037;-83
2023/09/26 10:24:18;;;;;;;13.20;5.43;;;;;;;26.76;43.43;100354.91;5063822;28;20029;-84
2023/09/26 10:26:45;;;;;;;14.05;4.93;;;;;;;26.41;44.10;100311.06;5057728;28;20655;-80
2023/09/26 10:29:19;;;;;;;10.82;4.40;;;;;;;27.04;43.15;100349.13;5057952;28;20093;-83
2023/09/26 10:32:07;;;;;;;13.40;4.57;;;;;;;27.05;42.62;100309.66;5064382;28;20033;-81
2023/09/26 10:34:37;;;;;;;14.15;4.18;;;;;;;27.47;42.26;100342.81;5055363;28;20590;-81
2023/09/26 10:37:07;;;;;;;15.82;4.22;;;;;;;27.24;42.26;100343.00;5050734;28;20035;-81
2023/09/26 10:39:33;;;;;;;15.48;4.85;;;;;;;27.06;42.76;100333.97;5060303;28;20047;-81
2023/09/26 10:42:01;;;;;;;15.15;4.55;;;;;;;26.75;43.32;100317.75;5061409;28;20060;-82
2023/09/26 10:44:26;;;;;;;12.20;4.20;;;;;;;26.99;43.66;100343.78;5061516;28;20043;-80
2023/09/26 10:46:53;;;;;;;12.43;4.30;;;;;;;26.80;43.33;100323.03;5059823;28;20540;-82
2023/09/26 10:49:18;;;;;;;14.20;4.93;;;;;;;26.97;43.06;100324.16;5055782;28;20480;-80
2023/09/26 10:51:44;;;;;;;18.02;5.13;;;;;;;27.09;43.14;100334.47;5066737;28;20059;-82
2023/09/26 10:54:09;;;;;;;13.98;4.95;;;;;;;27.03;43.45;100315.47;5054327;28;20040;-80
2023/09/26 10:56:35;;;;;;;12.32;4.50;;;;;;;27.10;43.06;100317.72;5057150;28;20025;-81
2023/09/26 10:59:02;;;;;;;12.93;4.75;;;;;;;27.65;42.00;100319.72;5052742;28;20027;-81
2023/09/26 11:01:38;;;;;;;16.13;9.30;;;;;;;28.25;41.36;100312.34;5067067;28;20041;-83
2023/09/26 11:04:05;;;;;;;20.75;11.38;;;;;;;28.40;41.18;100332.94;5053121;28;20414;-82
2023/09/26 11:06:31;;;;;;;14.02;4.93;;;;;;;28.03;41.28;100316.19;5055920;28;20501;-79
2023/09/26 11:08:57;;;;;;;8.65;4.20;;;;;;;28.01;41.03;100314.91;5069494;28;20031;-82
2023/09/26 11:11:22;;;;;;;12.25;4.30;;;;;;;27.42;42.30;100310.09;5051003;28;20501;-82
2023/09/26 11:13:48;;;;;;;10.45;4.03;;;;;;;27.06;42.79;100306.59;5051212;28;20118;-82